Weather reports worldwide

Advertisment
Kinbrace, United Kingdom (99016): temperature & dewpoint: 15.01.2020 23:00:00 - 21.01.2020 23:00:00 (GMT)Kinbrace, United Kingdom (99016): wind speed & gusts: 15.01.2020 23:00:00 - 21.01.2020 23:00:00 (GMT)Kinbrace, United Kingdom (99016): wind direction: 15.01.2020 23:00:00 - 21.01.2020 23:00:00 (GMT)Kinbrace, United Kingdom (99016): precipitation: 15.01.2020 23:00:00 - 21.01.2020 23:00:00 (GMT)
Date & Time tt [°C] td [°C] ff [km/h] ff [kn] fx [km/h] fx [kn] dd rr [mm]
21.01.2020 23:00:00 6,5 6,2 8 4 - - ESE 0,0
21.01.2020 22:00:00 5,8 5,4 4 2 - - SSE 0,6
21.01.2020 21:00:00 5,8 5,3 5 3 - - SE 0,0
21.01.2020 20:00:00 5,2 4,6 4 2 - - SSE 0,0
21.01.2020 19:00:00 4,7 3,9 4 2 - - S 0,0
21.01.2020 18:00:00 5,3 4,4 4 2 - - SSE 0,0
21.01.2020 17:00:00 6,7 5,8 15 8 - - NNW 0,0
21.01.2020 16:00:00 4,8 3,9 5 3 - - NW 0,0
21.01.2020 15:00:00 7,0 5,6 11 6 - - NNW 0,0
21.01.2020 14:00:00 7,3 5,7 4 2 - - SSW 0,0
21.01.2020 13:00:00 7,4 5,9 13 7 - - NW 0,0
21.01.2020 12:00:00 7,3 6,2 5 3 - - N 0,0
21.01.2020 11:00:00 7,2 6,7 8 4 - - W 0,0
21.01.2020 10:00:00 5,4 5,3 2 1 - - E 0,0
21.01.2020 09:00:00 4,2 4,0 2 1 - - S 0,0
21.01.2020 08:00:00 4,1 3,7 4 2 - - E 0,0
21.01.2020 07:00:00 5,0 4,4 4 2 - - N 0,2
21.01.2020 06:00:00 6,6 6,1 2 1 - - ENE 0,0
21.01.2020 05:00:00 6,9 6,2 8 4 - - NW 0,2
21.01.2020 04:00:00 7,6 6,8 18 10 - - N 0,2
21.01.2020 03:00:00 9,5 8,5 21 11 - - WNW 0,0
21.01.2020 02:00:00 10,3 8,0 21 11 - - W 0,0
21.01.2020 01:00:00 9,5 8,1 15 8 - - WSW 0,0
21.01.2020 00:00:00 9,4 8,1 21 11 - - WSW 0,0
20.01.2020 23:00:00 9,7 7,7 26 14 55 30 W 0,0
20.01.2020 22:00:00 9,4 7,3 31 17 63 34 WSW 0,0
20.01.2020 21:00:00 9,6 6,9 37 20 59 32 W 0,0
20.01.2020 20:00:00 9,3 6,5 22 12 46 25 W 0,0
20.01.2020 19:00:00 9,1 6,5 26 14 46 25 W 0,0
20.01.2020 18:00:00 9,0 6,4 18 10 - - W 0,0
20.01.2020 17:00:00 9,3 6,2 24 13 - - WSW 0,0
20.01.2020 16:00:00 9,2 6,3 29 16 55 30 WSW 0,0
20.01.2020 15:00:00 9,8 6,8 28 15 50 27 SW 0,0
20.01.2020 14:00:00 10,6 7,1 35 19 54 29 W 0,0
20.01.2020 13:00:00 10,5 6,2 29 16 - - W 0,0
20.01.2020 12:00:00 10,0 5,8 15 8 - - W 0,0
20.01.2020 11:00:00 9,3 5,5 22 12 - - S 0,0
20.01.2020 10:00:00 9,2 6,4 18 10 - - S 0,0
20.01.2020 09:00:00 8,6 6,3 9 5 - - SE 0,0
20.01.2020 08:00:00 9,2 6,7 13 7 - - S 0,0
20.01.2020 07:00:00 9,2 6,7 15 8 - - SSW 0,0
20.01.2020 06:00:00 9,6 7,1 24 13 - - SSE 0,0
20.01.2020 05:00:00 9,0 6,5 11 6 - - S 0,0
20.01.2020 04:00:00 9,5 6,4 24 13 - - SW 0,0
20.01.2020 03:00:00 9,1 5,8 16 9 - - SSE 0,0
20.01.2020 02:00:00 9,1 5,8 16 9 - - S 0,0
20.01.2020 01:00:00 8,7 5,2 5 3 - - SSW 0,0
20.01.2020 00:00:00 8,3 4,8 18 10 63 34 S 0,0
19.01.2020 23:00:00 8,9 5,0 39 21 63 34 WNW 0,0
19.01.2020 22:00:00 8,9 4,8 31 17 67 36 WNW 0,0
19.01.2020 21:00:00 8,4 4,5 24 13 - - W 0,0
19.01.2020 20:00:00 8,0 4,0 18 10 - - WSW 0,0
19.01.2020 19:00:00 7,4 3,7 5 3 - - E 0,0
19.01.2020 18:00:00 7,0 3,4 13 7 - - S 0,0
19.01.2020 17:00:00 7,4 2,2 21 11 50 27 SE 0,0
19.01.2020 16:00:00 7,3 1,8 26 14 46 25 WSW 0,0
19.01.2020 15:00:00 7,0 0,9 13 7 - - S 0,0
19.01.2020 14:00:00 7,3 -0,4 13 7 - - S 0,0
19.01.2020 13:00:00 6,4 0,5 15 8 - - SSW 0,0
19.01.2020 12:00:00 6,3 2,0 13 7 - - SSE 0,0
19.01.2020 11:00:00 6,1 2,5 11 6 - - ESE 0,0
19.01.2020 10:00:00 5,5 2,1 28 15 50 27 S 0,0
19.01.2020 09:00:00 4,2 0,8 16 9 - - SSE 0,0
19.01.2020 08:00:00 2,5 0,4 5 3 - - E 0,2
19.01.2020 07:00:00 3,0 0,2 5 3 - - S 0,0
19.01.2020 06:00:00 1,8 0,1 2 1 - - S 0,0
19.01.2020 05:00:00 1,3 -0,7 9 5 - - SSW 0,0
19.01.2020 04:00:00 3,1 -0,2 15 8 - - WSW 0,0
19.01.2020 03:00:00 1,3 -1,5 4 2 - - WSW 0,0
19.01.2020 02:00:00 1,2 -0,2 11 6 - - SW 0,0
19.01.2020 01:00:00 0,8 -1,0 8 4 - - WNW 0,0
19.01.2020 00:00:00 0,9 -1,2 13 7 - - SW 0,0
18.01.2020 23:00:00 0,8 -0,6 8 4 - - E 0,0
18.01.2020 22:00:00 0,3 -0,7 8 4 - - E 0,0
18.01.2020 21:00:00 0,7 -0,4 4 2 - - E 0,0
18.01.2020 20:00:00 1,3 0,1 5 3 - - NW 0,0
18.01.2020 19:00:00 1,6 0,4 4 2 - - WNW 0,0
18.01.2020 18:00:00 2,5 0,9 16 9 - - NNW 0,0
18.01.2020 17:00:00 3,0 1,0 26 14 - - NNW 0,0
18.01.2020 16:00:00 2,8 1,3 16 9 - - NNW 0,0
18.01.2020 15:00:00 3,6 1,2 16 9 - - WNW 0,0
18.01.2020 14:00:00 3,3 1,5 24 13 65 35 NW 0,2
18.01.2020 13:00:00 4,9 2,2 22 12 - - NW 0,0
18.01.2020 12:00:00 2,5 0,8 18 10 - - NW 0,0
18.01.2020 11:00:00 2,8 1,8 18 10 - - WNW 0,4
18.01.2020 10:00:00 1,6 0,8 16 9 - - NW 0,4
18.01.2020 09:00:00 1,0 -0,1 9 5 - - NW 0,0
18.01.2020 08:00:00 1,2 0,1 13 7 48 26 NW 0,4
18.01.2020 07:00:00 1,9 0,6 24 13 - - NNW 0,4
18.01.2020 06:00:00 2,1 1,1 16 9 52 28 WNW 0,6
18.01.2020 05:00:00 1,2 0,2 16 9 - - NW 0,6
18.01.2020 04:00:00 2,5 0,4 24 13 - - WNW 0,4
18.01.2020 03:00:00 1,6 -0,1 9 5 - - NW 0,2
18.01.2020 02:00:00 1,4 -0,7 15 8 - - NW 0,0
18.01.2020 01:00:00 2,3 0,6 18 10 - - WNW 0,4
18.01.2020 00:00:00 1,3 0,9 4 2 - - WNW 0,2
17.01.2020 23:00:00 0,7 0,2 8 4 - - N 2,0
17.01.2020 22:00:00 2,0 1,0 31 17 46 25 WNW 0,6
17.01.2020 21:00:00 3,8 2,3 18 10 46 25 WNW 0,0
17.01.2020 20:00:00 4,0 1,3 26 14 52 28 WNW 0,4
17.01.2020 19:00:00 4,3 1,8 15 8 - - W 0,2
17.01.2020 18:00:00 4,7 2,1 15 8 - - WNW 0,0
17.01.2020 17:00:00 5,0 2,4 21 11 - - WNW 0,0
17.01.2020 16:00:00 5,0 2,7 4 2 - - NW 0,2
17.01.2020 15:00:00 5,9 2,4 28 15 46 25 WSW 0,0
17.01.2020 14:00:00 6,2 2,0 26 14 50 27 W 0,0
17.01.2020 13:00:00 6,5 1,6 29 16 55 30 WSW 0,0
17.01.2020 12:00:00 7,0 1,7 29 16 55 30 WSW 0,0
17.01.2020 11:00:00 5,6 1,4 16 9 - - SW 0,0
17.01.2020 10:00:00 4,5 1,5 21 11 52 28 SSW 0,0
17.01.2020 09:00:00 3,8 0,1 29 16 54 29 SSW 0,0
17.01.2020 08:00:00 3,1 -0,3 26 14 50 27 S 0,0
17.01.2020 07:00:00 3,9 -0,5 24 13 - - SSW 0,0
17.01.2020 06:00:00 4,1 -0,2 21 11 - - SSW 0,0
17.01.2020 05:00:00 3,7 0,1 21 11 - - SSW 0,0
17.01.2020 04:00:00 3,8 0,9 16 9 - - S 0,0
17.01.2020 03:00:00 4,5 1,4 26 14 - - S 0,0
17.01.2020 02:00:00 4,4 1,5 22 12 - - S 0,0
17.01.2020 01:00:00 4,4 1,6 18 10 - - S 0,0
17.01.2020 00:00:00 4,9 2,2 24 13 - - S 0,0
16.01.2020 23:00:00 5,2 2,7 21 11 - - S 0,0
16.01.2020 22:00:00 5,7 4,0 16 9 - - S 0,0
16.01.2020 21:00:00 6,6 3,8 29 16 - - SSE 0,0
16.01.2020 20:00:00 6,1 4,0 35 19 48 26 SE 0,0
16.01.2020 19:00:00 6,0 4,6 39 21 54 29 SE 0,0
16.01.2020 18:00:00 6,0 4,6 41 22 59 32 SE 0,4
16.01.2020 17:00:00 6,0 4,2 44 24 65 35 SE 0,0
16.01.2020 16:00:00 6,7 4,0 48 26 70 38 SE 0,0
16.01.2020 15:00:00 7,4 4,1 29 16 55 30 ESE 0,0
16.01.2020 14:00:00 7,8 4,3 34 18 - - SE 0,0
16.01.2020 13:00:00 7,0 4,1 34 18 55 30 SE 0,0
16.01.2020 12:00:00 6,4 4,1 39 21 55 30 SE 0,0
16.01.2020 11:00:00 6,0 3,1 29 16 46 25 SE 0,0
16.01.2020 10:00:00 5,3 2,9 29 16 - - SE 0,0
16.01.2020 09:00:00 5,1 2,5 26 14 - - SE 0,0
16.01.2020 08:00:00 3,5 1,1 24 13 - - SE 0,0
16.01.2020 07:00:00 3,4 0,8 4 2 - - SSE 0,0
16.01.2020 06:00:00 3,0 0,9 4 2 - - NNE 0,0
16.01.2020 05:00:00 2,6 0,7 4 2 - - SSE 0,0
16.01.2020 04:00:00 1,9 0,1 5 3 - - SSW 0,0
16.01.2020 03:00:00 2,9 0,2 8 4 - - W 0,0
16.01.2020 02:00:00 3,6 1,2 13 7 - - W 0,0
16.01.2020 01:00:00 4,6 2,0 21 11 55 30 W 0,2
16.01.2020 00:00:00 4,4 2,5 13 7 52 28 W 0,2
15.01.2020 23:00:00 5,6 3,5 26 14 - - WSW 0,6

tt = temperature
td = dewpoint
ff = wind speed
fx = gusts
dd = wind direction
rr = precipitation

Next stations